Time;durP1;ratioP1;P1;durP2;ratioP2;P2;SDS_P1;SDS_P2;PMS_P1;PMS_P2;Temp;Humidity;BMP_temperature;BMP_pressure;BME280_temperature;BME280_humidity;BME280_pressure;Samples;Min_cycle;Max_cycle;Signal;HPM_P1;HPM_P2
2023/08/05 00:01:01;;;;;;;;;;;17.50;97.40;;;;;;5087551;28;19911;-71
2023/08/05 00:03:27;;;;;;;;;;;17.50;97.60;;;;;;5087671;28;20358;-71
2023/08/05 00:05:52;;;;;;;;;;;17.40;97.50;;;;;;5087565;28;19961;-70
2023/08/05 00:08:17;;;;;;;;;;;17.40;97.50;;;;;;5069765;28;19973;-71
2023/08/05 00:10:44;;;;;;;;;;;17.40;97.50;;;;;;5088480;28;20449;-71
2023/08/05 00:13:09;;;;;;;;;;;17.40;97.50;;;;;;5087483;28;20064;-70
2023/08/05 00:15:35;;;;;;;;;;;17.40;97.70;;;;;;5087459;28;20492;-71
2023/08/05 00:18:00;;;;;;;;;;;17.40;97.50;;;;;;5092660;28;19912;-70
2023/08/05 00:20:26;;;;;;;;;;;17.40;97.50;;;;;;5087325;28;19958;-70
2023/08/05 00:22:51;;;;;;;;;;;17.40;97.60;;;;;;5082801;28;20311;-70
2023/08/05 00:25:17;;;;;;;;;;;17.30;97.50;;;;;;5094989;28;20006;-71
2023/08/05 00:27:42;;;;;;;;;;;17.30;97.50;;;;;;5087757;28;19912;-71
2023/08/05 00:30:08;;;;;;;;;;;17.30;97.60;;;;;;5087600;28;19951;-71
2023/08/05 00:32:36;;;;;;;;;;;17.30;97.60;;;;;;5087783;28;19919;-71
2023/08/05 00:35:03;;;;;;;;;;;17.30;97.60;;;;;;5087764;28;20396;-70
2023/08/05 00:37:28;;;;;;;;;;;17.30;97.60;;;;;;5087642;28;19919;-71
2023/08/05 00:39:54;;;;;;;;;;;17.30;97.60;;;;;;5104815;28;19916;-70
2023/08/05 00:42:19;;;;;;;;;;;17.30;97.60;;;;;;5088979;28;20539;-71
2023/08/05 00:44:45;;;;;;;;;;;17.30;97.60;;;;;;5087675;28;20003;-71
2023/08/05 00:47:10;;;;;;;;;;;17.20;97.60;;;;;;5087461;28;19958;-71
2023/08/05 00:49:36;;;;;;;;;;;17.30;97.70;;;;;;5087255;28;20003;-71
2023/08/05 00:52:02;;;;;;;;;;;17.20;97.70;;;;;;5089582;28;19962;-71
2023/08/05 00:54:27;;;;;;;;;;;17.20;97.70;;;;;;5099490;28;19960;-70
2023/08/05 00:56:53;;;;;;;;;;;17.20;97.70;;;;;;5087288;28;19912;-72
2023/08/05 00:59:19;;;;;;;;;;;17.20;97.70;;;;;;5087802;28;19912;-71
2023/08/05 01:01:45;;;;;;;;;;;17.20;97.70;;;;;;5069271;28;19924;-71
2023/08/05 01:04:11;;;;;;;;;;;17.20;97.70;;;;;;5087303;28;19908;-70
2023/08/05 01:06:36;;;;;;;;;;;17.20;98.00;;;;;;5093896;28;19963;-70
2023/08/05 01:09:03;;;;;;;;;;;17.20;97.70;;;;;;5089515;28;19919;-70
2023/08/05 01:11:29;;;;;;;;;;;17.20;97.70;;;;;;5087432;28;19912;-71
2023/08/05 01:13:54;;;;;;;;;;;17.20;97.70;;;;;;5069118;28;19912;-70
2023/08/05 01:16:20;;;;;;;;;;;17.20;97.70;;;;;;5087273;28;19919;-70
2023/08/05 01:18:46;;;;;;;;;;;17.20;97.70;;;;;;5080253;28;20269;-71
2023/08/05 01:21:18;;;;;;;;;;;17.10;97.70;;;;;;5087008;28;19924;-70
2023/08/05 01:23:50;;;;;;;;;;;17.10;97.80;;;;;;5091125;28;20668;-71
2023/08/05 01:26:16;;;;;;;;;;;17.20;97.80;;;;;;5090787;28;20002;-70
2023/08/05 01:28:42;;;;;;;;;;;17.10;97.80;;;;;;5091361;28;19995;-71
2023/08/05 01:31:08;;;;;;;;;;;17.10;97.80;;;;;;5090788;28;19917;-70
2023/08/05 01:33:34;;;;;;;;;;;17.10;97.80;;;;;;5096448;28;20365;-70
2023/08/05 01:36:00;;;;;;;;;;;17.10;97.80;;;;;;5090509;28;19964;-70
2023/08/05 01:38:25;;;;;;;;;;;17.10;97.80;;;;;;5090813;28;19908;-71
2023/08/05 01:40:51;;;;;;;;;;;17.10;97.80;;;;;;5090815;28;19912;-71
2023/08/05 01:43:17;;;;;;;;;;;17.20;97.90;;;;;;5090723;28;19919;-71
2023/08/05 01:45:42;;;;;;;;;;;17.10;97.90;;;;;;5090526;28;20261;-71
2023/08/05 01:48:08;;;;;;;;;;;17.10;97.90;;;;;;5091057;28;19916;-71
2023/08/05 01:50:34;;;;;;;;;;;17.10;97.80;;;;;;5090671;28;20441;-71
2023/08/05 01:52:59;;;;;;;;;;;17.10;97.90;;;;;;5090569;28;19917;-71
2023/08/05 01:55:25;;;;;;;;;;;17.10;97.90;;;;;;5055754;28;19912;-71
2023/08/05 01:57:50;;;;;;;;;;;17.10;97.90;;;;;;5085888;28;19916;-70
2023/08/05 02:00:16;;;;;;;;;;;17.10;97.90;;;;;;5074520;28;19920;-70
2023/08/05 02:02:42;;;;;;;;;;;17.10;97.90;;;;;;5110916;28;19963;-71
2023/08/05 02:05:07;;;;;;;;;;;17.10;97.90;;;;;;5094802;28;19946;-70
2023/08/05 02:07:33;;;;;;;;;;;17.10;97.90;;;;;;5090073;28;19912;-71
2023/08/05 02:09:58;;;;;;;;;;;17.10;97.90;;;;;;5071876;28;19962;-71
2023/08/05 02:12:24;;;;;;;;;;;17.10;97.90;;;;;;5090145;28;19916;-71
2023/08/05 02:14:49;;;;;;;;;;;17.10;98.00;;;;;;5090375;28;19958;-71
2023/08/05 02:17:15;;;;;;;;;;;17.10;98.00;;;;;;5092859;28;19944;-71
2023/08/05 02:19:40;;;;;;;;;;;17.10;97.90;;;;;;5084578;28;19916;-70
2023/08/05 02:22:06;;;;;;;;;;;17.10;98.00;;;;;;5089854;28;20393;-71
2023/08/05 02:24:31;;;;;;;;;;;17.10;98.00;;;;;;5095361;28;19920;-71
2023/08/05 02:26:57;;;;;;;;;;;17.10;98.00;;;;;;5089979;28;19943;-71
2023/08/05 02:29:22;;;;;;;;;;;17.00;97.90;;;;;;5089694;28;19959;-71
2023/08/05 02:31:48;;;;;;;;;;;17.00;98.00;;;;;;5090079;28;19958;-70
2023/08/05 02:34:13;;;;;;;;;;;17.00;98.10;;;;;;5101131;28;20265;-70
2023/08/05 02:36:39;;;;;;;;;;;17.00;98.00;;;;;;5089672;28;19976;-70
2023/08/05 02:39:04;;;;;;;;;;;17.00;98.10;;;;;;5089527;28;19908;-71
2023/08/05 02:41:29;;;;;;;;;;;17.00;98.00;;;;;;5089127;28;19974;-71
2023/08/05 02:43:55;;;;;;;;;;;17.00;98.10;;;;;;5089655;28;19965;-70
2023/08/05 02:46:20;;;;;;;;;;;16.90;98.10;;;;;;5071272;28;19923;-70
2023/08/05 02:48:46;;;;;;;;;;;16.90;98.10;;;;;;5090570;28;20416;-70
2023/08/05 02:51:11;;;;;;;;;;;16.90;98.10;;;;;;5089665;28;19976;-71
2023/08/05 02:53:37;;;;;;;;;;;16.90;98.10;;;;;;5088130;28;19916;-70
2023/08/05 02:56:02;;;;;;;;;;;16.90;98.10;;;;;;5069010;28;19920;-72
2023/08/05 02:58:28;;;;;;;;;;;16.90;98.00;;;;;;5069061;28;19912;-70
2023/08/05 03:00:54;;;;;;;;;;;16.90;98.10;;;;;;5069251;28;20050;-71
2023/08/05 03:03:19;;;;;;;;;;;16.90;98.20;;;;;;5091494;28;19915;-70
2023/08/05 03:05:45;;;;;;;;;;;16.90;98.10;;;;;;5070755;28;19912;-71
2023/08/05 03:08:10;;;;;;;;;;;16.80;98.10;;;;;;5070992;28;19912;-71
2023/08/05 03:10:37;;;;;;;;;;;16.80;98.20;;;;;;5088725;28;19908;-71
2023/08/05 03:13:03;;;;;;;;;;;16.80;98.20;;;;;;5070815;28;20310;-71
2023/08/05 03:15:28;;;;;;;;;;;16.80;98.20;;;;;;5088583;28;19909;-70
2023/08/05 03:17:54;;;;;;;;;;;16.80;98.20;;;;;;5088711;28;19916;-71
2023/08/05 03:20:27;;;;;;;;;;;16.80;98.20;;;;;;5091940;28;19916;-71
2023/08/05 03:22:53;;;;;;;;;;;16.80;98.20;;;;;;5088771;28;19920;-71
2023/08/05 03:25:20;;;;;;;;;;;16.80;98.20;;;;;;5073122;28;19996;-70
2023/08/05 03:27:46;;;;;;;;;;;16.80;98.20;;;;;;5068336;28;20532;-71
2023/08/05 03:30:11;;;;;;;;;;;16.70;98.20;;;;;;5068662;28;20057;-70
2023/08/05 03:32:37;;;;;;;;;;;16.70;98.20;;;;;;5068342;28;20429;-71
2023/08/05 03:35:02;;;;;;;;;;;16.70;98.30;;;;;;5084063;28;20351;-70
2023/08/05 03:37:29;;;;;;;;;;;16.70;98.30;;;;;;5088412;28;19951;-70
2023/08/05 03:39:54;;;;;;;;;;;16.70;98.30;;;;;;5069956;28;20269;-70
2023/08/05 03:42:20;;;;;;;;;;;16.70;98.20;;;;;;5088807;28;19924;-71
2023/08/05 03:44:45;;;;;;;;;;;16.70;98.20;;;;;;5087842;28;19909;-71
2023/08/05 03:47:11;;;;;;;;;;;16.60;98.20;;;;;;5088244;28;20321;-71
2023/08/05 03:49:38;;;;;;;;;;;16.60;98.20;;;;;;5069975;28;20467;-70
2023/08/05 03:52:04;;;;;;;;;;;16.60;98.20;;;;;;5097523;28;20610;-71
2023/08/05 03:54:29;;;;;;;;;;;16.60;98.20;;;;;;5100184;28;19916;-71
2023/08/05 03:56:58;;;;;;;;;;;16.60;98.20;;;;;;5069785;28;19919;-70
2023/08/05 03:59:23;;;;;;;;;;;16.60;98.20;;;;;;5088265;28;19912;-70
2023/08/05 04:01:49;;;;;;;;;;;16.60;98.30;;;;;;5087972;28;19998;-71
2023/08/05 04:04:14;;;;;;;;;;;16.60;98.20;;;;;;5088256;28;19919;-70
2023/08/05 04:06:40;;;;;;;;;;;16.50;98.20;;;;;;5087942;28;19912;-71
2023/08/05 04:09:06;;;;;;;;;;;16.50;98.30;;;;;;5104127;28;19916;-71
2023/08/05 04:11:32;;;;;;;;;;;16.50;98.30;;;;;;5087679;28;19919;-71
2023/08/05 04:13:59;;;;;;;;;;;16.50;98.20;;;;;;5088099;28;20662;-70
2023/08/05 04:16:25;;;;;;;;;;;16.50;98.20;;;;;;5087765;28;20438;-71
2023/08/05 04:18:52;;;;;;;;;;;16.50;98.20;;;;;;5084219;28;19923;-70
2023/08/05 04:21:17;;;;;;;;;;;16.50;98.30;;;;;;5087521;28;19915;-71
2023/08/05 04:23:46;;;;;;;;;;;16.50;98.30;;;;;;5078326;28;20692;-71
2023/08/05 04:26:12;;;;;;;;;;;16.40;98.20;;;;;;5072890;28;19912;-71
2023/08/05 04:28:37;;;;;;;;;;;16.40;98.30;;;;;;5108089;28;19923;-70
2023/08/05 04:31:03;;;;;;;;;;;16.40;98.30;;;;;;5108307;28;19912;-70
2023/08/05 04:33:28;;;;;;;;;;;16.40;98.30;;;;;;5106571;28;19912;-71
2023/08/05 04:35:54;;;;;;;;;;;16.40;98.30;;;;;;5087728;28;19912;-71
2023/08/05 04:38:20;;;;;;;;;;;16.40;98.20;;;;;;5091193;28;19915;-71
2023/08/05 04:40:45;;;;;;;;;;;16.40;98.20;;;;;;5096178;28;19916;-71
2023/08/05 04:43:12;;;;;;;;;;;16.40;98.20;;;;;;5087509;28;19923;-71
2023/08/05 04:45:38;;;;;;;;;;;16.40;98.20;;;;;;5087497;28;19912;-71
2023/08/05 04:48:06;;;;;;;;;;;16.40;98.20;;;;;;5087713;28;19919;-70
2023/08/05 04:50:32;;;;;;;;;;;16.40;98.30;;;;;;5087292;28;20392;-71
2023/08/05 04:52:57;;;;;;;;;;;16.40;98.30;;;;;;5087891;28;19912;-72
2023/08/05 04:55:23;;;;;;;;;;;16.40;98.30;;;;;;5090650;28;19916;-70
2023/08/05 04:57:52;;;;;;;;;;;16.40;98.30;;;;;;5091630;28;19989;-71
2023/08/05 05:00:18;;;;;;;;;;;16.40;98.30;;;;;;5073446;28;20279;-71
2023/08/05 05:02:43;;;;;;;;;;;16.40;98.20;;;;;;5091029;28;19916;-70
2023/08/05 05:05:09;;;;;;;;;;;16.40;98.30;;;;;;5091240;28;20254;-70
2023/08/05 05:07:34;;;;;;;;;;;16.40;98.20;;;;;;5091220;28;19920;-70
2023/08/05 05:10:00;;;;;;;;;;;16.40;98.30;;;;;;5092591;28;19916;-71
2023/08/05 05:12:25;;;;;;;;;;;16.40;98.30;;;;;;5073576;28;20345;-71
2023/08/05 05:14:51;;;;;;;;;;;16.30;98.30;;;;;;5091299;28;19915;-70
2023/08/05 05:17:17;;;;;;;;;;;16.40;98.30;;;;;;5088102;28;20400;-71
2023/08/05 05:19:43;;;;;;;;;;;16.40;98.30;;;;;;5086218;28;20365;-71
2023/08/05 05:22:08;;;;;;;;;;;16.30;98.20;;;;;;5091035;28;19923;-70
2023/08/05 05:24:34;;;;;;;;;;;16.40;98.30;;;;;;5090646;28;19920;-70
2023/08/05 05:27:00;;;;;;;;;;;16.40;98.30;;;;;;5101475;28;19915;-70
2023/08/05 05:29:26;;;;;;;;;;;16.40;98.30;;;;;;5111531;28;19947;-71
2023/08/05 05:31:51;;;;;;;;;;;16.40;98.20;;;;;;5111433;28;19918;-71
2023/08/05 05:34:17;;;;;;;;;;;16.40;98.20;;;;;;5102928;28;19913;-70
2023/08/05 05:36:44;;;;;;;;;;;16.40;98.20;;;;;;5090110;28;20419;-70
2023/08/05 05:39:10;;;;;;;;;;;16.40;98.20;;;;;;5090959;28;20020;-70
2023/08/05 05:41:35;;;;;;;;;;;16.50;98.20;;;;;;5090500;28;19942;-71
2023/08/05 05:44:03;;;;;;;;;;;16.50;98.20;;;;;;5108628;28;19916;-71
2023/08/05 05:46:32;;;;;;;;;;;16.50;98.20;;;;;;5110885;28;19915;-71
2023/08/05 05:48:58;;;;;;;;;;;16.50;98.20;;;;;;5110912;28;19929;-70
2023/08/05 05:51:23;;;;;;;;;;;16.50;98.10;;;;;;5111010;28;20560;-70
2023/08/05 05:53:50;;;;;;;;;;;16.50;98.20;;;;;;5108097;28;20063;-71
2023/08/05 05:56:16;;;;;;;;;;;16.60;98.10;;;;;;5090794;28;20294;-70
2023/08/05 05:58:42;;;;;;;;;;;16.60;98.10;;;;;;5091597;28;20049;-70
2023/08/05 06:01:07;;;;;;;;;;;16.60;98.10;;;;;;5090149;28;19918;-71
2023/08/05 06:03:34;;;;;;;;;;;16.60;98.10;;;;;;5090251;28;20435;-70
2023/08/05 06:06:00;;;;;;;;;;;16.70;98.10;;;;;;5089852;28;20324;-71
2023/08/05 06:08:26;;;;;;;;;;;16.60;98.10;;;;;;5089608;28;19919;-71
2023/08/05 06:10:51;;;;;;;;;;;16.70;98.40;;;;;;5090271;28;20511;-71
2023/08/05 06:13:17;;;;;;;;;;;16.70;98.10;;;;;;5090223;28;20057;-71
2023/08/05 06:15:42;;;;;;;;;;;16.70;98.10;;;;;;5093166;28;19915;-71
2023/08/05 06:18:08;;;;;;;;;;;16.80;98.10;;;;;;5097117;28;19958;-70
2023/08/05 06:20:34;;;;;;;;;;;16.80;98.00;;;;;;5089770;28;20437;-71
2023/08/05 06:22:59;;;;;;;;;;;16.80;98.00;;;;;;5089771;28;19923;-71
2023/08/05 06:25:25;;;;;;;;;;;16.90;97.90;;;;;;5089549;28;19927;-70
2023/08/05 06:27:50;;;;;;;;;;;16.90;97.80;;;;;;5091336;28;19916;-70
2023/08/05 06:30:16;;;;;;;;;;;17.00;97.80;;;;;;5089812;28;19912;-70
2023/08/05 06:32:41;;;;;;;;;;;16.90;97.80;;;;;;5090091;28;19920;-70
2023/08/05 06:35:07;;;;;;;;;;;17.00;97.70;;;;;;5089429;28;20329;-71
2023/08/05 06:37:33;;;;;;;;;;;17.10;97.80;;;;;;5089752;28;19912;-71
2023/08/05 06:39:58;;;;;;;;;;;17.10;97.80;;;;;;5066747;28;19912;-71
2023/08/05 06:42:25;;;;;;;;;;;17.10;97.90;;;;;;5089034;28;19919;-71
2023/08/05 06:44:51;;;;;;;;;;;17.10;97.90;;;;;;5086444;28;19954;-71
2023/08/05 06:47:16;;;;;;;;;;;17.10;97.90;;;;;;5082955;28;20350;-71
2023/08/05 06:49:42;;;;;;;;;;;17.10;97.90;;;;;;5088716;28;19919;-70
2023/08/05 06:52:07;;;;;;;;;;;17.20;97.80;;;;;;5088876;28;19912;-70
2023/08/05 06:54:33;;;;;;;;;;;17.20;97.80;;;;;;5088335;28;19913;-72
2023/08/05 06:56:58;;;;;;;;;;;17.20;97.70;;;;;;5088543;28;20763;-71
2023/08/05 06:59:24;;;;;;;;;;;17.20;97.70;;;;;;5071216;28;19965;-71
2023/08/05 07:01:49;;;;;;;;;;;17.30;97.70;;;;;;5088738;28;19916;-72
2023/08/05 07:04:15;;;;;;;;;;;17.30;97.70;;;;;;5070303;28;19912;-71
2023/08/05 07:06:41;;;;;;;;;;;17.30;97.70;;;;;;5088086;28;19912;-71
2023/08/05 07:09:06;;;;;;;;;;;17.40;97.70;;;;;;5088546;28;20010;-71
2023/08/05 07:11:32;;;;;;;;;;;17.40;97.70;;;;;;5088472;28;20089;-71
2023/08/05 07:13:58;;;;;;;;;;;17.40;97.80;;;;;;5092005;28;19916;-70
2023/08/05 07:16:23;;;;;;;;;;;17.40;97.70;;;;;;5080647;28;20270;-71
2023/08/05 07:18:49;;;;;;;;;;;17.40;97.70;;;;;;5082820;28;20388;-71
2023/08/05 07:21:17;;;;;;;;;;;17.40;97.70;;;;;;5087371;28;20562;-70
2023/08/05 07:23:43;;;;;;;;;;;17.40;97.70;;;;;;5086378;28;19982;-71
2023/08/05 07:26:08;;;;;;;;;;;17.40;97.80;;;;;;5086240;28;20531;-71
2023/08/05 07:28:34;;;;;;;;;;;17.40;97.70;;;;;;5087746;28;19912;-72
2023/08/05 07:31:07;;;;;;;;;;;17.40;97.70;;;;;;5090550;28;19973;-72
2023/08/05 07:33:33;;;;;;;;;;;17.50;97.70;;;;;;5084361;28;20416;-71
2023/08/05 07:36:06;;;;;;;;;;;17.50;97.60;;;;;;5087168;28;19944;-71
2023/08/05 07:38:35;;;;;;;;;;;17.40;97.70;;;;;;5085424;28;19916;-71
2023/08/05 07:41:00;;;;;;;;;;;17.50;97.70;;;;;;5087733;28;20348;-71
2023/08/05 07:43:29;;;;;;;;;;;17.50;97.60;;;;;;5087502;28;20019;-71
2023/08/05 07:45:59;;;;;;;;;;;17.50;97.50;;;;;;5077697;28;19931;-71
2023/08/05 07:48:25;;;;;;;;;;;17.60;97.50;;;;;;5069837;28;19974;-72
2023/08/05 07:50:50;;;;;;;;;;;17.60;97.50;;;;;;5069667;28;19999;-72
2023/08/05 07:53:19;;;;;;;;;;;17.60;97.50;;;;;;5087952;28;20011;-71
2023/08/05 07:55:45;;;;;;;;;;;17.60;97.60;;;;;;5068134;28;19912;-71
2023/08/05 07:58:11;;;;;;;;;;;17.60;97.70;;;;;;5067500;28;19917;-71
2023/08/05 08:00:39;;;;;;;;;;;17.60;97.60;;;;;;5070937;28;19912;-71
2023/08/05 08:03:05;;;;;;;;;;;17.50;97.60;;;;;;5107032;28;20400;-71
2023/08/05 08:05:30;;;;;;;;;;;17.50;97.60;;;;;;5100806;28;20060;-72
2023/08/05 08:07:56;;;;;;;;;;;17.50;97.70;;;;;;5085788;28;20098;-71
2023/08/05 08:10:24;;;;;;;;;;;17.60;97.60;;;;;;5086407;28;19955;-71
2023/08/05 08:12:51;;;;;;;;;;;17.60;97.50;;;;;;5087409;28;20411;-71
2023/08/05 08:15:17;;;;;;;;;;;17.70;97.60;;;;;;5082265;28;19913;-71
2023/08/05 08:17:42;;;;;;;;;;;17.70;97.60;;;;;;5073735;28;19958;-71
2023/08/05 08:20:08;;;;;;;;;;;17.70;97.50;;;;;;5082418;28;19916;-71
2023/08/05 08:22:33;;;;;;;;;;;17.70;97.30;;;;;;5072117;28;20008;-71
2023/08/05 08:24:59;;;;;;;;;;;17.80;97.30;;;;;;5081698;28;20392;-71
2023/08/05 08:27:24;;;;;;;;;;;17.70;97.30;;;;;;5086386;28;19943;-71
2023/08/05 08:29:50;;;;;;;;;;;17.80;97.40;;;;;;5086925;28;19954;-71
2023/08/05 08:32:15;;;;;;;;;;;17.80;97.40;;;;;;5090779;28;19988;-71
2023/08/05 08:34:41;;;;;;;;;;;17.80;97.40;;;;;;5094984;28;19920;-72
2023/08/05 08:37:06;;;;;;;;;;;17.70;97.40;;;;;;5086664;28;19919;-71
2023/08/05 08:39:32;;;;;;;;;;;17.80;97.40;;;;;;5087282;28;20627;-71
2023/08/05 08:41:58;;;;;;;;;;;17.80;97.30;;;;;;5087808;28;19916;-71
2023/08/05 08:44:25;;;;;;;;;;;17.80;97.20;;;;;;5087360;28;19912;-71
2023/08/05 08:46:51;;;;;;;;;;;17.90;97.20;;;;;;5087462;28;20345;-72
2023/08/05 08:49:18;;;;;;;;;;;17.90;97.10;;;;;;5087867;28;20001;-71
2023/08/05 08:51:46;;;;;;;;;;;18.00;97.00;;;;;;5087754;28;20007;-71
2023/08/05 08:54:13;;;;;;;;;;;18.00;97.10;;;;;;5081455;28;19920;-71
2023/08/05 08:56:38;;;;;;;;;;;18.00;97.20;;;;;;5099666;28;19915;-72
2023/08/05 08:59:04;;;;;;;;;;;18.00;97.10;;;;;;5107841;28;19919;-71
2023/08/05 09:01:30;;;;;;;;;;;18.10;97.20;;;;;;5107738;28;19954;-71
2023/08/05 09:03:56;;;;;;;;;;;18.10;97.00;;;;;;5102408;28;19919;-71
2023/08/05 09:06:23;;;;;;;;;;;18.10;97.00;;;;;;5087174;28;20464;-71
2023/08/05 09:08:50;;;;;;;;;;;18.10;96.90;;;;;;5088555;28;19908;-71
2023/08/05 09:11:16;;;;;;;;;;;18.20;97.00;;;;;;5079147;28;19916;-71
2023/08/05 09:13:42;;;;;;;;;;;18.30;96.80;;;;;;5087477;28;19950;-71
2023/08/05 09:16:12;;;;;;;;;;;18.40;96.80;;;;;;5095160;28;19912;-71
2023/08/05 09:18:42;;;;;;;;;;;18.40;96.60;;;;;;5092555;28;19919;-71
2023/08/05 09:21:07;;;;;;;;;;;18.50;96.60;;;;;;5087007;28;19912;-71
2023/08/05 09:23:43;;;;;;;;;;;18.50;96.60;;;;;;5078565;28;20383;-71
2023/08/05 09:26:10;;;;;;;;;;;18.60;96.40;;;;;;5087219;28;20395;-70
2023/08/05 09:28:36;;;;;;;;;;;18.60;96.30;;;;;;5069355;28;19955;-72
2023/08/05 09:31:15;;;;;;;;;;;18.70;96.30;;;;;;5098918;28;19955;-71
2023/08/05 09:33:41;;;;;;;;;;;18.70;96.20;;;;;;5086684;28;20016;-71
2023/08/05 09:36:07;;;;;;;;;;;18.70;96.10;;;;;;5078275;28;20502;-71
2023/08/05 09:38:33;;;;;;;;;;;18.70;96.00;;;;;;5068726;28;19912;-71
2023/08/05 09:41:00;;;;;;;;;;;18.70;96.10;;;;;;5069151;28;19938;-71
2023/08/05 09:43:28;;;;;;;;;;;18.70;96.00;;;;;;5091047;28;19927;-71
2023/08/05 09:45:54;;;;;;;;;;;18.80;96.00;;;;;;5110964;28;19912;-71
2023/08/05 09:48:22;;;;;;;;;;;18.90;96.00;;;;;;5111704;28;19916;-71
2023/08/05 09:50:48;;;;;;;;;;;18.90;95.90;;;;;;5111418;28;19918;-72
2023/08/05 09:53:17;;;;;;;;;;;18.90;95.80;;;;;;5111720;28;19908;-71
2023/08/05 09:55:43;;;;;;;;;;;18.90;95.90;;;;;;5092180;28;20048;-71
2023/08/05 09:58:10;;;;;;;;;;;18.80;96.00;;;;;;5081420;28;20622;-72
2023/08/05 10:00:36;;;;;;;;;;;18.90;95.80;;;;;;5092757;28;20007;-72
2023/08/05 10:03:04;;;;;;;;;;;19.00;95.90;;;;;;5111106;28;19923;-71
2023/08/05 10:05:30;;;;;;;;;;;19.10;95.50;;;;;;5091742;28;19926;-72
2023/08/05 10:07:58;;;;;;;;;;;19.20;95.50;;;;;;5090420;28;19912;-71
2023/08/05 10:10:24;;;;;;;;;;;19.20;95.40;;;;;;5090288;28;20387;-71
2023/08/05 10:12:51;;;;;;;;;;;19.40;95.20;;;;;;5105836;28;20414;-71
2023/08/05 10:15:21;;;;;;;;;;;19.50;95.00;;;;;;5110435;28;20373;-72
2023/08/05 10:17:48;;;;;;;;;;;19.50;95.00;;;;;;5095907;28;19912;-71
2023/08/05 10:20:14;;;;;;;;;;;19.60;94.90;;;;;;5089631;28;19912;-71
2023/08/05 10:22:39;;;;;;;;;;;19.70;94.70;;;;;;5084242;28;20054;-71
2023/08/05 10:25:05;;;;;;;;;;;19.80;94.60;;;;;;5079090;28;19924;-71
2023/08/05 10:27:42;;;;;;;;;;;19.80;94.50;;;;;;5092803;28;19951;-72
2023/08/05 10:30:09;;;;;;;;;;;19.90;94.60;;;;;;5084628;28;19917;-72
2023/08/05 10:32:35;;;;;;;;;;;19.80;94.70;;;;;;5088985;28;19912;-71
2023/08/05 10:35:19;;;;;;;;;;;19.80;94.80;;;;;;5088467;28;19908;-71
2023/08/05 10:37:48;;;;;;;;;;;19.80;94.80;;;;;;5088784;28;19918;-72
2023/08/05 10:40:34;;;;;;;;;;;19.80;94.80;;;;;;5101016;28;20002;-71
2023/08/05 10:42:59;;;;;;;;;;;19.80;94.90;;;;;;5088491;28;20026;-71
2023/08/05 10:45:25;;;;;;;;;;;19.70;95.00;;;;;;5088646;28;19999;-71
2023/08/05 10:47:50;;;;;;;;;;;19.80;95.00;;;;;;5088860;28;20408;-71
2023/08/05 10:50:16;;;;;;;;;;;19.90;95.10;;;;;;5088703;28;19908;-71
2023/08/05 10:52:41;;;;;;;;;;;20.00;94.90;;;;;;5091853;28;19911;-71
2023/08/05 10:55:09;;;;;;;;;;;20.10;94.70;;;;;;5094998;28;19908;-71
2023/08/05 10:57:38;;;;;;;;;;;20.10;94.50;;;;;;5088655;28;19934;-72
2023/08/05 11:00:05;;;;;;;;;;;20.10;94.50;;;;;;5068870;28;19951;-72
2023/08/05 11:02:33;;;;;;;;;;;20.10;94.60;;;;;;5068257;28;19952;-71
2023/08/05 11:05:08;;;;;;;;;;;20.10;94.70;;;;;;5081427;28;20458;-71
2023/08/05 11:07:41;;;;;;;;;;;20.10;94.60;;;;;;5087254;28;19912;-71
2023/08/05 11:10:07;;;;;;;;;;;20.20;94.40;;;;;;5087520;28;19949;-72
2023/08/05 11:12:32;;;;;;;;;;;20.20;94.20;;;;;;5086676;28;19985;-71
2023/08/05 11:14:59;;;;;;;;;;;20.40;94.40;;;;;;5087613;28;20443;-71
2023/08/05 11:17:24;;;;;;;;;;;20.50;94.10;;;;;;5083658;28;19912;-72
2023/08/05 11:19:53;;;;;;;;;;;20.60;94.00;;;;;;5083531;28;20046;-72
2023/08/05 11:22:28;;;;;;;;;;;20.70;93.70;;;;;;5088182;28;19916;-72
2023/08/05 11:25:00;;;;;;;;;;;20.90;93.80;;;;;;5095952;28;19927;-71
2023/08/05 11:27:29;;;;;;;;;;;21.00;93.40;;;;;;5101609;28;19916;-71
2023/08/05 11:29:54;;;;;;;;;;;21.10;93.30;;;;;;5104425;28;19918;-71
2023/08/05 11:32:20;;;;;;;;;;;21.10;93.10;;;;;;5099650;28;19915;-71
2023/08/05 11:34:45;;;;;;;;;;;21.20;92.90;;;;;;5087386;28;19912;-71
2023/08/05 11:37:11;;;;;;;;;;;21.20;93.00;;;;;;5087153;28;19919;-71
2023/08/05 11:39:36;;;;;;;;;;;21.20;93.10;;;;;;5077747;28;19934;-71
2023/08/05 11:42:02;;;;;;;;;;;21.20;93.40;;;;;;5087236;28;19923;-72
2023/08/05 11:44:27;;;;;;;;;;;21.20;93.30;;;;;;5087526;28;19969;-71
2023/08/05 11:46:53;;;;;;;;;;;21.20;93.30;;;;;;5087431;28;19958;-71
2023/08/05 11:49:18;;;;;;;;;;;21.20;93.20;;;;;;5087255;28;20018;-71
2023/08/05 11:51:45;;;;;;;;;;;21.30;93.20;;;;;;5069457;28;19908;-71
2023/08/05 11:54:10;;;;;;;;;;;21.30;93.20;;;;;;5097423;28;19912;-71
2023/08/05 11:56:36;;;;;;;;;;;21.40;93.10;;;;;;5082631;28;19919;-71
2023/08/05 11:59:01;;;;;;;;;;;21.40;93.00;;;;;;5103614;28;19914;-71
2023/08/05 12:01:27;;;;;;;;;;;21.50;92.80;;;;;;5067110;28;20027;-71
2023/08/05 12:03:57;;;;;;;;;;;21.50;92.80;;;;;;5071714;28;19912;-71
2023/08/05 12:06:26;;;;;;;;;;;21.50;92.80;;;;;;5086519;28;19919;-72
2023/08/05 12:08:58;;;;;;;;;;;21.50;92.80;;;;;;5087014;28;19955;-72
2023/08/05 12:11:24;;;;;;;;;;;21.50;92.90;;;;;;5073591;28;19963;-72
2023/08/05 12:13:49;;;;;;;;;;;21.50;92.90;;;;;;5087581;28;19959;-71
2023/08/05 12:16:18;;;;;;;;;;;21.50;93.10;;;;;;5086396;28;20545;-71
2023/08/05 12:18:44;;;;;;;;;;;21.50;93.10;;;;;;5079245;28;19912;-72
2023/08/05 12:21:10;;;;;;;;;;;21.50;93.10;;;;;;5086681;28;19915;-72
2023/08/05 12:23:40;;;;;;;;;;;21.50;93.00;;;;;;5096988;28;19911;-71
2023/08/05 12:26:06;;;;;;;;;;;21.50;93.00;;;;;;5087044;28;20288;-72
2023/08/05 12:28:32;;;;;;;;;;;21.60;93.00;;;;;;5086932;28;20354;-71
2023/08/05 12:30:57;;;;;;;;;;;21.60;92.90;;;;;;5052751;28;19913;-71
2023/08/05 12:33:23;;;;;;;;;;;21.60;92.80;;;;;;5068544;28;20039;-71
2023/08/05 12:35:48;;;;;;;;;;;21.70;92.40;;;;;;5085224;28;20702;-71
2023/08/05 12:38:14;;;;;;;;;;;21.70;92.40;;;;;;5081277;28;19908;-71
2023/08/05 12:40:39;;;;;;;;;;;21.80;92.40;;;;;;5086590;28;19919;-72
2023/08/05 12:43:05;;;;;;;;;;;21.80;92.20;;;;;;5068868;28;20061;-71
2023/08/05 12:45:30;;;;;;;;;;;21.80;92.20;;;;;;5086711;28;19916;-71
2023/08/05 12:47:56;;;;;;;;;;;21.80;92.20;;;;;;5086486;28;19919;-72
2023/08/05 12:50:21;;;;;;;;;;;21.80;92.60;;;;;;5086823;28;19912;-71
2023/08/05 12:52:47;;;;;;;;;;;21.70;92.60;;;;;;5090767;28;19912;-71
2023/08/05 12:55:12;;;;;;;;;;;21.70;92.60;;;;;;5092477;28;19919;-71
2023/08/05 12:57:38;;;;;;;;;;;21.70;92.70;;;;;;5086716;28;19919;-71
2023/08/05 13:00:04;;;;;;;;;;;21.70;92.70;;;;;;5082007;28;19913;-71
2023/08/05 13:02:29;;;;;;;;;;;21.80;92.60;;;;;;5066675;28;20526;-72
2023/08/05 13:04:55;;;;;;;;;;;21.80;92.30;;;;;;5081851;28;19999;-71
2023/08/05 13:07:21;;;;;;;;;;;21.90;92.30;;;;;;5086297;28;19979;-71
2023/08/05 13:09:47;;;;;;;;;;;22.00;92.20;;;;;;5085623;28;20061;-72
2023/08/05 13:12:13;;;;;;;;;;;22.20;92.00;;;;;;5086582;28;19912;-71
2023/08/05 13:14:39;;;;;;;;;;;22.30;91.90;;;;;;5086314;28;19912;-72
2023/08/05 13:17:04;;;;;;;;;;;22.30;91.60;;;;;;5085864;28;19912;-72
2023/08/05 13:19:30;;;;;;;;;;;22.40;92.00;;;;;;5090299;28;19912;-72
2023/08/05 13:21:55;;;;;;;;;;;22.40;91.60;;;;;;5090890;28;19947;-72
2023/08/05 13:24:21;;;;;;;;;;;22.40;91.40;;;;;;5082516;28;19966;-72
2023/08/05 13:26:46;;;;;;;;;;;22.50;91.40;;;;;;5097884;28;19916;-72
2023/08/05 13:29:12;;;;;;;;;;;22.50;91.40;;;;;;5111357;28;19916;-72
2023/08/05 13:31:37;;;;;;;;;;;22.50;91.30;;;;;;5108392;28;20436;-71
2023/08/05 13:34:03;;;;;;;;;;;22.60;91.40;;;;;;5105026;28;19912;-72
2023/08/05 13:36:28;;;;;;;;;;;22.50;91.20;;;;;;5090792;28;19919;-71
2023/08/05 13:38:54;;;;;;;;;;;22.50;91.40;;;;;;5090674;28;19943;-72
2023/08/05 13:41:19;;;;;;;;;;;22.50;91.40;;;;;;5090687;28;19915;-72
2023/08/05 13:43:45;;;;;;;;;;;22.50;91.30;;;;;;5091477;28;19915;-71
2023/08/05 13:46:11;;;;;;;;;;;22.50;91.50;;;;;;5090550;28;19966;-71
2023/08/05 13:48:37;;;;;;;;;;;22.40;91.70;;;;;;5091015;28;19912;-71
2023/08/05 13:51:03;;;;;;;;;;;22.40;92.00;;;;;;5090977;28;19909;-72
2023/08/05 13:53:29;;;;;;;;;;;22.30;92.10;;;;;;5082033;28;20035;-72
2023/08/05 13:55:56;;;;;;;;;;;22.20;92.20;;;;;;5070206;28;19912;-72
2023/08/05 13:58:21;;;;;;;;;;;22.20;92.40;;;;;;5072055;28;20400;-71
2023/08/05 14:00:47;;;;;;;;;;;22.10;92.50;;;;;;5091058;28;20003;-72
2023/08/05 14:03:12;;;;;;;;;;;22.10;92.60;;;;;;5091320;28;19912;-72
2023/08/05 14:05:38;;;;;;;;;;;22.00;92.80;;;;;;5090467;28;19986;-72
2023/08/05 14:08:03;;;;;;;;;;;21.90;92.70;;;;;;5089571;28;19942;-71
2023/08/05 14:10:29;;;;;;;;;;;21.80;93.00;;;;;;5085217;28;19920;-72